createdAt,value
2022-09-24T00:04:40.148Z,17.40
2022-09-24T00:14:44.033Z,17.60
2022-09-24T00:25:06.603Z,17.70
2022-09-24T00:35:10.852Z,17.60
2022-09-24T00:45:15.839Z,17.90
2022-09-24T00:55:21.089Z,18.30
2022-09-24T01:05:26.148Z,18.20
2022-09-24T01:15:34.689Z,18.40
2022-09-24T01:25:58.633Z,18.10
2022-09-24T01:36:08.582Z,18.40
2022-09-24T01:46:13.845Z,18.00
2022-09-24T01:56:24.095Z,17.90
2022-09-24T02:06:36.368Z,18.30
2022-09-24T02:16:48.419Z,18.00
2022-09-24T02:26:52.438Z,17.80
2022-09-24T02:37:01.006Z,18.00
2022-09-24T02:47:05.182Z,17.80
2022-09-24T02:57:10.497Z,17.60
2022-09-24T03:07:14.745Z,17.50
2022-09-24T03:17:19.838Z,17.60
2022-09-24T03:27:23.495Z,17.80
2022-09-24T03:37:28.767Z,17.80
2022-09-24T03:47:32.531Z,17.90
2022-09-24T03:57:37.703Z,18.00
2022-09-24T04:07:42.060Z,18.30
2022-09-24T04:17:53.221Z,18.30
2022-09-24T04:27:58.267Z,18.50
2022-09-24T04:38:04.272Z,18.60
2022-09-24T04:48:08.018Z,18.70
2022-09-24T04:58:13.048Z,18.70
2022-09-24T05:08:17.425Z,18.70
2022-09-24T05:18:22.712Z,18.90
2022-09-24T05:28:26.521Z,19.00
2022-09-24T05:38:33.156Z,19.10
2022-09-24T05:48:36.803Z,19.10
2022-09-24T05:58:42.018Z,19.10
2022-09-24T06:08:45.776Z,19.10
2022-09-24T06:18:50.931Z,19.20
2022-09-24T06:28:54.681Z,19.20
2022-09-24T06:38:59.972Z,19.40
2022-09-24T06:49:03.664Z,19.40
2022-09-24T06:59:09.524Z,19.60
2022-09-24T07:09:13.268Z,19.70
2022-09-24T07:19:18.353Z,19.80
2022-09-24T07:29:22.076Z,19.80
2022-09-24T07:39:27.446Z,20.00
2022-09-24T07:49:32.891Z,20.20
2022-09-24T07:59:37.960Z,20.40
2022-09-24T08:09:42.165Z,20.60
2022-09-24T08:19:47.944Z,20.70
2022-09-24T08:29:51.598Z,21.00
2022-09-24T08:39:57.200Z,21.00
2022-09-24T08:50:09.619Z,21.00
2022-09-24T09:00:17.269Z,21.80
2022-09-24T09:10:29.100Z,22.20
2022-09-24T09:20:37.453Z,22.60
2022-09-24T09:30:47.599Z,23.10
2022-09-24T09:41:01.114Z,23.20
2022-09-24T09:51:06.918Z,22.40
2022-09-24T10:01:14.446Z,22.50
2022-09-24T10:11:20.182Z,22.80
2022-09-24T10:21:34.546Z,22.70
2022-09-24T10:31:42.325Z,22.60
2022-09-24T10:41:51.008Z,22.30
2022-09-24T10:52:03.533Z,22.50
2022-09-24T11:02:48.374Z,22.60
2022-09-24T11:13:08.311Z,22.90
2022-09-24T11:23:30.402Z,24.50
2022-09-24T11:33:52.482Z,24.50
2022-09-24T11:44:18.858Z,24.70
2022-09-24T11:54:32.333Z,25.30
2022-09-24T12:04:49.023Z,24.90
2022-09-24T12:14:58.707Z,24.90
2022-09-24T12:25:03.222Z,24.40
2022-09-24T12:35:19.251Z,23.60
2022-09-24T12:45:25.277Z,23.70
2022-09-24T12:55:33.616Z,23.80
2022-09-24T13:05:49.744Z,23.30
2022-09-24T13:16:03.112Z,24.20
2022-09-24T13:26:09.343Z,24.30
2022-09-24T13:36:17.307Z,24.50
2022-09-24T13:46:22.408Z,24.50
2022-09-24T13:56:27.660Z,24.40
2022-09-24T14:06:35.947Z,25.30
2022-09-24T14:16:40.965Z,26.80
2022-09-24T14:26:48.430Z,25.10
2022-09-24T14:36:54.144Z,27.80
2022-09-24T14:46:59.667Z,25.70
2022-09-24T14:57:12.956Z,26.80
2022-09-24T15:07:19.208Z,24.70
2022-09-24T15:17:27.133Z,24.60
2022-09-24T15:27:32.722Z,23.90
2022-09-24T15:37:40.723Z,23.70
2022-09-24T15:47:44.374Z,23.30
2022-09-24T15:57:49.578Z,23.40
2022-09-24T16:07:53.260Z,23.30
2022-09-24T16:17:58.297Z,23.00
2022-09-24T16:28:02.173Z,22.90
2022-09-24T16:38:07.269Z,22.90
2022-09-24T16:48:13.755Z,22.80
2022-09-24T16:58:18.746Z,22.50
2022-09-24T17:08:22.388Z,22.30
2022-09-24T17:18:27.811Z,22.30
2022-09-24T17:28:34.205Z,22.30
2022-09-24T17:38:39.402Z,22.00
2022-09-24T17:48:44.676Z,21.80
2022-09-24T17:58:49.909Z,21.50
2022-09-24T18:08:54.081Z,21.40
2022-09-24T18:19:00.966Z,21.40
2022-09-24T18:29:10.479Z,21.40
2022-09-24T18:39:23.836Z,21.30
2022-09-24T18:49:28.786Z,21.30
2022-09-24T18:59:38.624Z,21.30
2022-09-24T19:09:42.406Z,21.20
2022-09-24T19:19:52.141Z,21.20
2022-09-24T19:29:56.211Z,20.90
2022-09-24T19:40:01.314Z,20.80
2022-09-24T19:50:05.383Z,20.80
2022-09-24T20:00:12.012Z,20.70
2022-09-24T20:10:15.644Z,20.60
2022-09-24T20:20:20.630Z,20.60
2022-09-24T20:30:24.699Z,20.60
2022-09-24T20:40:30.329Z,20.40
2022-09-24T20:50:35.851Z,20.30
2022-09-24T21:00:48.784Z,20.20
2022-09-24T21:11:01.731Z,19.80
2022-09-24T21:21:08.625Z,19.80
2022-09-24T21:31:12.545Z,19.90
2022-09-24T21:41:17.488Z,20.00
2022-09-24T21:51:22.631Z,19.90
2022-09-24T22:01:30.741Z,20.10
2022-09-24T22:11:34.621Z,19.70
2022-09-24T22:21:40.659Z,19.40
2022-09-24T22:31:44.344Z,19.60
2022-09-24T22:41:49.640Z,19.70
2022-09-24T22:51:53.327Z,19.60
2022-09-24T23:01:58.439Z,19.20
2022-09-24T23:12:02.195Z,17.10
2022-09-24T23:22:07.278Z,16.70
2022-09-24T23:32:11.307Z,16.80
2022-09-24T23:42:16.387Z,16.90
2022-09-24T23:52:19.987Z,16.80
